sensor_id;sensor_type;location;lat;lon;timestamp;pressure;altitude;pressure_sealevel;temperature;humidity
40117;BME280;25829;50.228;18.936;2023-04-01T00:01:18;96830.72;;;8.37;64.47
40117;BME280;25829;50.228;18.936;2023-04-01T00:04:18;96844.63;;;8.37;64.44
40117;BME280;25829;50.228;18.936;2023-04-01T00:07:20;96835.41;;;8.35;64.81
40117;BME280;25829;50.228;18.936;2023-04-01T00:10:21;96836.41;;;8.34;64.72
40117;BME280;25829;50.228;18.936;2023-04-01T00:13:23;96829.81;;;8.31;64.98
40117;BME280;25829;50.228;18.936;2023-04-01T00:16:23;96832.66;;;8.30;64.72
40117;BME280;25829;50.228;18.936;2023-04-01T00:19:25;96833.72;;;8.29;64.74
40117;BME280;25829;50.228;18.936;2023-04-01T00:25:37;96824.81;;;8.18;65.03
40117;BME280;25829;50.228;18.936;2023-04-01T00:28:38;96839.22;;;8.15;65.10
40117;BME280;25829;50.228;18.936;2023-04-01T00:31:39;96834.22;;;8.14;65.08
40117;BME280;25829;50.228;18.936;2023-04-01T00:34:50;96824.38;;;8.09;65.79
40117;BME280;25829;50.228;18.936;2023-04-01T00:37:52;96828.03;;;8.08;65.64
40117;BME280;25829;50.228;18.936;2023-04-01T00:40:57;96825.53;;;8.13;66.07
40117;BME280;25829;50.228;18.936;2023-04-01T00:44:15;96820.03;;;8.15;65.83
40117;BME280;25829;50.228;18.936;2023-04-01T00:47:21;96825.75;;;8.12;65.82
40117;BME280;25829;50.228;18.936;2023-04-01T00:50:23;96824.28;;;8.04;65.79
40117;BME280;25829;50.228;18.936;2023-04-01T00:53:26;96828.41;;;8.00;66.09
40117;BME280;25829;50.228;18.936;2023-04-01T00:56:41;96841.06;;;7.91;66.18
40117;BME280;25829;50.228;18.936;2023-04-01T00:59:48;96845.78;;;7.89;66.55
40117;BME280;25829;50.228;18.936;2023-04-01T01:02:50;96843.69;;;7.91;66.42
40117;BME280;25829;50.228;18.936;2023-04-01T01:16:15;96838.53;;;8.08;66.53
40117;BME280;25829;50.228;18.936;2023-04-01T01:19:35;96837.84;;;8.13;66.50
40117;BME280;25829;50.228;18.936;2023-04-01T01:23:22;96824.72;;;8.13;66.55
40117;BME280;25829;50.228;18.936;2023-04-01T01:26:34;96832.25;;;8.09;66.35
40117;BME280;25829;50.228;18.936;2023-04-01T01:30:03;96820.75;;;8.10;66.61
40117;BME280;25829;50.228;18.936;2023-04-01T01:33:24;96816.03;;;8.12;66.50
40117;BME280;25829;50.228;18.936;2023-04-01T01:36:32;96818.19;;;8.15;66.59
40117;BME280;25829;50.228;18.936;2023-04-01T01:39:43;96808.94;;;8.13;66.52
40117;BME280;25829;50.228;18.936;2023-04-01T01:42:51;96810.31;;;8.15;66.27
40117;BME280;25829;50.228;18.936;2023-04-01T01:45:58;96812.94;;;8.15;65.91
40117;BME280;25829;50.228;18.936;2023-04-01T01:49:02;96813.19;;;8.14;66.40
40117;BME280;25829;50.228;18.936;2023-04-01T01:52:04;96814.66;;;8.10;66.41
40117;BME280;25829;50.228;18.936;2023-04-01T01:58:32;96819.41;;;7.96;66.36
40117;BME280;25829;50.228;18.936;2023-04-01T02:01:44;96818.47;;;7.90;66.64
40117;BME280;25829;50.228;18.936;2023-04-01T02:04:49;96814.72;;;7.86;66.70
40117;BME280;25829;50.228;18.936;2023-04-01T02:08:18;96825.22;;;7.86;67.03
40117;BME280;25829;50.228;18.936;2023-04-01T02:11:49;96822.47;;;7.81;66.99
40117;BME280;25829;50.228;18.936;2023-04-01T02:14:59;96828.19;;;7.78;66.95
40117;BME280;25829;50.228;18.936;2023-04-01T02:18:02;96824.38;;;7.74;67.49
40117;BME280;25829;50.228;18.936;2023-04-01T02:21:05;96823.50;;;7.68;67.32
40117;BME280;25829;50.228;18.936;2023-04-01T02:24:20;96830.53;;;7.68;67.54
40117;BME280;25829;50.228;18.936;2023-04-01T02:27:25;96833.75;;;7.70;67.53
40117;BME280;25829;50.228;18.936;2023-04-01T02:30:29;96834.72;;;7.76;67.32
40117;BME280;25829;50.228;18.936;2023-04-01T02:33:34;96836.84;;;7.79;67.40
40117;BME280;25829;50.228;18.936;2023-04-01T02:36:36;96836.41;;;7.82;67.50
40117;BME280;25829;50.228;18.936;2023-04-01T02:39:36;96839.84;;;7.82;67.51
40117;BME280;25829;50.228;18.936;2023-04-01T02:42:37;96831.97;;;7.82;67.59
40117;BME280;25829;50.228;18.936;2023-04-01T02:45:38;96835.16;;;7.84;67.62
40117;BME280;25829;50.228;18.936;2023-04-01T02:48:41;96831.28;;;7.87;67.59
40117;BME280;25829;50.228;18.936;2023-04-01T02:51:43;96839.69;;;7.89;67.53
40117;BME280;25829;50.228;18.936;2023-04-01T02:54:44;96840.28;;;7.91;67.65
40117;BME280;25829;50.228;18.936;2023-04-01T02:57:45;96841.41;;;7.95;67.51
40117;BME280;25829;50.228;18.936;2023-04-01T03:00:48;96848.03;;;7.97;67.38
40117;BME280;25829;50.228;18.936;2023-04-01T03:03:49;96842.78;;;7.97;67.06
40117;BME280;25829;50.228;18.936;2023-04-01T03:06:50;96839.81;;;7.94;67.33
40117;BME280;25829;50.228;18.936;2023-04-01T03:09:51;96848.63;;;8.00;67.48
40117;BME280;25829;50.228;18.936;2023-04-01T03:12:53;96844.97;;;8.01;66.97
40117;BME280;25829;50.228;18.936;2023-04-01T03:15:53;96843.91;;;8.02;67.16
40117;BME280;25829;50.228;18.936;2023-04-01T03:18:54;96846.09;;;8.05;67.21
40117;BME280;25829;50.228;18.936;2023-04-01T03:21:59;96846.09;;;8.05;67.13
40117;BME280;25829;50.228;18.936;2023-04-01T03:25:01;96839.25;;;8.04;67.03
40117;BME280;25829;50.228;18.936;2023-04-01T03:28:02;96846.34;;;8.03;66.92
40117;BME280;25829;50.228;18.936;2023-04-01T03:31:03;96844.25;;;8.05;66.93
40117;BME280;25829;50.228;18.936;2023-04-01T03:34:12;96861.25;;;8.03;67.21
40117;BME280;25829;50.228;18.936;2023-04-01T03:37:13;96849.41;;;8.00;67.05
40117;BME280;25829;50.228;18.936;2023-04-01T03:40:14;96854.41;;;8.02;67.19
40117;BME280;25829;50.228;18.936;2023-04-01T03:43:18;96852.25;;;7.98;67.12
40117;BME280;25829;50.228;18.936;2023-04-01T03:46:20;96848.03;;;7.97;67.53
40117;BME280;25829;50.228;18.936;2023-04-01T03:49:24;96854.09;;;7.98;67.25
40117;BME280;25829;50.228;18.936;2023-04-01T03:52:25;96856.50;;;8.00;67.26
40117;BME280;25829;50.228;18.936;2023-04-01T03:55:26;96846.53;;;8.02;67.59
40117;BME280;25829;50.228;18.936;2023-04-01T03:58:27;96847.13;;;8.04;67.26
40117;BME280;25829;50.228;18.936;2023-04-01T04:01:29;96859.22;;;8.05;67.44
40117;BME280;25829;50.228;18.936;2023-04-01T04:04:30;96855.09;;;8.09;67.18
40117;BME280;25829;50.228;18.936;2023-04-01T04:07:34;96853.25;;;8.09;67.38
40117;BME280;25829;50.228;18.936;2023-04-01T04:10:41;96847.22;;;8.09;67.43
40117;BME280;25829;50.228;18.936;2023-04-01T04:13:45;96850.44;;;8.11;67.55
40117;BME280;25829;50.228;18.936;2023-04-01T04:16:49;96848.25;;;8.08;67.36
40117;BME280;25829;50.228;18.936;2023-04-01T04:19:50;96850.63;;;8.09;67.49
40117;BME280;25829;50.228;18.936;2023-04-01T04:22:51;96848.25;;;8.08;67.40
40117;BME280;25829;50.228;18.936;2023-04-01T04:26:06;96846.66;;;8.07;67.24
40117;BME280;25829;50.228;18.936;2023-04-01T04:29:08;96843.22;;;8.06;67.40
40117;BME280;25829;50.228;18.936;2023-04-01T04:32:09;96842.53;;;8.11;67.45
40117;BME280;25829;50.228;18.936;2023-04-01T04:35:18;96834.41;;;8.12;67.77
40117;BME280;25829;50.228;18.936;2023-04-01T04:38:20;96843.91;;;8.13;67.59
40117;BME280;25829;50.228;18.936;2023-04-01T04:41:21;96843.22;;;8.18;67.62
40117;BME280;25829;50.228;18.936;2023-04-01T04:44:24;96839.88;;;8.23;67.62
40117;BME280;25829;50.228;18.936;2023-04-01T04:47:25;96850.50;;;8.28;67.31
40117;BME280;25829;50.228;18.936;2023-04-01T04:50:29;96845.34;;;8.33;67.33
40117;BME280;25829;50.228;18.936;2023-04-01T04:53:30;96842.84;;;8.38;67.36
40117;BME280;25829;50.228;18.936;2023-04-01T04:56:31;96848.41;;;8.41;67.38
40117;BME280;25829;50.228;18.936;2023-04-01T04:59:41;96844.97;;;8.41;67.26
40117;BME280;25829;50.228;18.936;2023-04-01T05:02:55;96854.00;;;8.45;67.70
40117;BME280;25829;50.228;18.936;2023-04-01T05:05:58;96849.31;;;8.47;67.21
40117;BME280;25829;50.228;18.936;2023-04-01T05:08:59;96855.94;;;8.50;67.29
40117;BME280;25829;50.228;18.936;2023-04-01T05:12:00;96852.59;;;8.54;67.21
40117;BME280;25829;50.228;18.936;2023-04-01T05:15:09;96858.75;;;8.60;67.22
40117;BME280;25829;50.228;18.936;2023-04-01T05:18:10;96853.25;;;8.61;66.81
40117;BME280;25829;50.228;18.936;2023-04-01T05:21:13;96857.91;;;8.71;67.23
40117;BME280;25829;50.228;18.936;2023-04-01T05:24:15;96855.94;;;8.78;66.75
40117;BME280;25829;50.228;18.936;2023-04-01T05:27:17;96855.56;;;8.86;67.02
40117;BME280;25829;50.228;18.936;2023-04-01T05:30:24;96859.06;;;8.92;66.58
40117;BME280;25829;50.228;18.936;2023-04-01T05:34:07;96861.81;;;8.97;66.53
40117;BME280;25829;50.228;18.936;2023-04-01T05:37:08;96852.88;;;8.98;66.20
40117;BME280;25829;50.228;18.936;2023-04-01T05:40:10;96864.53;;;9.02;66.20
40117;BME280;25829;50.228;18.936;2023-04-01T05:43:17;96861.88;;;9.02;66.15
40117;BME280;25829;50.228;18.936;2023-04-01T05:46:27;96865.88;;;9.05;65.95
40117;BME280;25829;50.228;18.936;2023-04-01T05:49:43;96860.84;;;9.03;65.97
40117;BME280;25829;50.228;18.936;2023-04-01T05:52:44;96871.88;;;9.00;65.85
40117;BME280;25829;50.228;18.936;2023-04-01T05:55:45;96865.44;;;8.96;65.92
40117;BME280;25829;50.228;18.936;2023-04-01T05:58:53;96870.97;;;8.95;65.84
40117;BME280;25829;50.228;18.936;2023-04-01T06:01:59;96870.38;;;8.92;65.84
40117;BME280;25829;50.228;18.936;2023-04-01T06:05:24;96874.16;;;8.97;66.25
40117;BME280;25829;50.228;18.936;2023-04-01T06:08:26;96876.22;;;8.95;66.19
40117;BME280;25829;50.228;18.936;2023-04-01T06:15:12;96874.16;;;8.97;66.18
40117;BME280;25829;50.228;18.936;2023-04-01T06:26:02;96878.06;;;8.94;66.22
40117;BME280;25829;50.228;18.936;2023-04-01T06:35:35;96881.22;;;8.96;66.51
40117;BME280;25829;50.228;18.936;2023-04-01T06:38:45;96891.28;;;8.99;66.74
40117;BME280;25829;50.228;18.936;2023-04-01T06:45:51;96889.50;;;9.16;66.18
40117;BME280;25829;50.228;18.936;2023-04-01T06:49:41;96883.06;;;9.24;66.58
40117;BME280;25829;50.228;18.936;2023-04-01T06:53:31;96888.66;;;9.28;66.37
40117;BME280;25829;50.228;18.936;2023-04-01T06:57:03;96882.56;;;9.27;66.52
40117;BME280;25829;50.228;18.936;2023-04-01T07:00:36;96889.53;;;9.33;66.66
40117;BME280;25829;50.228;18.936;2023-04-01T07:03:50;96898.56;;;9.37;66.59
40117;BME280;25829;50.228;18.936;2023-04-01T07:07:30;96898.03;;;9.52;67.01
40117;BME280;25829;50.228;18.936;2023-04-01T07:11:04;96895.16;;;9.54;66.57
40117;BME280;25829;50.228;18.936;2023-04-01T07:14:37;96900.66;;;9.52;66.71
40117;BME280;25829;50.228;18.936;2023-04-01T07:17:51;96896.66;;;9.50;66.58
40117;BME280;25829;50.228;18.936;2023-04-01T07:21:00;96895.41;;;9.52;66.64
40117;BME280;25829;50.228;18.936;2023-04-01T07:24:39;96900.66;;;9.52;66.89
40117;BME280;25829;50.228;18.936;2023-04-01T07:27:43;96901.78;;;9.56;66.95
40117;BME280;25829;50.228;18.936;2023-04-01T07:39:03;96923.22;;;9.82;67.07
40117;BME280;25829;50.228;18.936;2023-04-01T07:54:26;96921.31;;;9.60;68.63
40117;BME280;25829;50.228;18.936;2023-04-01T07:58:02;96924.84;;;9.66;69.30
40117;BME280;25829;50.228;18.936;2023-04-01T08:05:26;96925.06;;;9.81;69.08
40117;BME280;25829;50.228;18.936;2023-04-01T08:21:05;96925.16;;;10.42;68.37
40117;BME280;25829;50.228;18.936;2023-04-01T08:25:01;96940.41;;;10.62;67.84
40117;BME280;25829;50.228;18.936;2023-04-01T08:44:12;96940.16;;;10.80;66.47
40117;BME280;25829;50.228;18.936;2023-04-01T08:58:51;96944.56;;;10.75;69.27
40117;BME280;25829;50.228;18.936;2023-04-01T09:13:08;96934.19;;;11.12;69.28
40117;BME280;25829;50.228;18.936;2023-04-01T09:16:36;96935.78;;;11.40;69.51
40117;BME280;25829;50.228;18.936;2023-04-01T09:26:49;96932.84;;;11.69;66.72
40117;BME280;25829;50.228;18.936;2023-04-01T09:41:01;96948.72;;;11.15;68.98
40117;BME280;25829;50.228;18.936;2023-04-01T10:07:31;96937.06;;;13.07;65.31
40117;BME280;25829;50.228;18.936;2023-04-01T10:22:00;96940.75;;;12.38;65.60
40117;BME280;25829;50.228;18.936;2023-04-01T11:02:07;96949.69;;;11.63;66.40
40117;BME280;25829;50.228;18.936;2023-04-01T11:54:39;96957.53;;;11.52;66.34
40117;BME280;25829;50.228;18.936;2023-04-01T12:02:03;96948.78;;;11.79;67.06
40117;BME280;25829;50.228;18.936;2023-04-01T12:28:14;96959.81;;;12.40;64.36
40117;BME280;25829;50.228;18.936;2023-04-01T13:08:00;96965.84;;;12.36;60.83
40117;BME280;25829;50.228;18.936;2023-04-01T13:15:06;96965.47;;;12.17;60.82
40117;BME280;25829;50.228;18.936;2023-04-01T13:25:24;96971.28;;;12.14;60.32
40117;BME280;25829;50.228;18.936;2023-04-01T13:28:49;96967.28;;;12.11;60.89
40117;BME280;25829;50.228;18.936;2023-04-01T14:08:58;97023.72;;;11.68;64.32
40117;BME280;25829;50.228;18.936;2023-04-01T14:15:43;97006.31;;;11.72;63.64
40117;BME280;25829;50.228;18.936;2023-04-01T14:19:29;97015.00;;;11.67;63.73
40117;BME280;25829;50.228;18.936;2023-04-01T14:44:16;97030.47;;;11.10;66.75
40117;BME280;25829;50.228;18.936;2023-04-01T14:50:40;97029.59;;;11.04;66.87
40117;BME280;25829;50.228;18.936;2023-04-01T14:57:25;97026.41;;;11.02;67.08
40117;BME280;25829;50.228;18.936;2023-04-01T15:00:49;97032.53;;;11.07;67.25
40117;BME280;25829;50.228;18.936;2023-04-01T15:04:44;97038.47;;;11.15;67.40
40117;BME280;25829;50.228;18.936;2023-04-01T15:32:20;97056.13;;;11.36;66.28
40117;BME280;25829;50.228;18.936;2023-04-01T15:35:39;97057.69;;;11.32;66.05
40117;BME280;25829;50.228;18.936;2023-04-01T15:48:58;97090.84;;;11.06;65.97
40117;BME280;25829;50.228;18.936;2023-04-01T15:55:26;97092.16;;;10.87;66.47
40117;BME280;25829;50.228;18.936;2023-04-01T15:59:13;97087.88;;;10.80;66.73
40117;BME280;25829;50.228;18.936;2023-04-01T16:02:21;97096.31;;;10.66;66.46
40117;BME280;25829;50.228;18.936;2023-04-01T16:09:31;97087.41;;;10.50;66.82
40117;BME280;25829;50.228;18.936;2023-04-01T16:12:36;97096.81;;;10.46;66.65
40117;BME280;25829;50.228;18.936;2023-04-01T16:16:03;97098.31;;;10.42;67.00
40117;BME280;25829;50.228;18.936;2023-04-01T16:26:05;97092.72;;;10.38;67.21
40117;BME280;25829;50.228;18.936;2023-04-01T16:33:21;97101.84;;;10.30;67.96
40117;BME280;25829;50.228;18.936;2023-04-01T16:36:49;97112.00;;;10.22;68.24
40117;BME280;25829;50.228;18.936;2023-04-01T16:46:52;97127.06;;;10.09;69.25
40117;BME280;25829;50.228;18.936;2023-04-01T16:50:30;97127.31;;;10.08;69.67
40117;BME280;25829;50.228;18.936;2023-04-01T16:54:06;97133.84;;;10.05;69.77
40117;BME280;25829;50.228;18.936;2023-04-01T16:57:18;97144.75;;;9.97;69.81
40117;BME280;25829;50.228;18.936;2023-04-01T17:00:50;97145.22;;;9.94;69.99
40117;BME280;25829;50.228;18.936;2023-04-01T17:10:40;97168.03;;;9.88;70.30
40117;BME280;25829;50.228;18.936;2023-04-01T17:17:53;97174.94;;;9.78;70.68
40117;BME280;25829;50.228;18.936;2023-04-01T17:24:24;97188.16;;;9.66;71.20
40117;BME280;25829;50.228;18.936;2023-04-01T17:31:07;97196.72;;;9.61;71.22
40117;BME280;25829;50.228;18.936;2023-04-01T17:34:23;97191.91;;;9.58;71.62
40117;BME280;25829;50.228;18.936;2023-04-01T17:37:51;97193.19;;;9.56;71.76
40117;BME280;25829;50.228;18.936;2023-04-01T17:41:09;97204.19;;;9.53;71.97
40117;BME280;25829;50.228;18.936;2023-04-01T17:51:43;97222.97;;;9.56;71.86
40117;BME280;25829;50.228;18.936;2023-04-01T18:15:46;97238.06;;;9.49;72.30
40117;BME280;25829;50.228;18.936;2023-04-01T18:21:54;97240.69;;;9.37;72.02
40117;BME280;25829;50.228;18.936;2023-04-01T18:25:04;97247.44;;;9.33;72.32
40117;BME280;25829;50.228;18.936;2023-04-01T18:31:48;97264.22;;;9.21;72.06
40117;BME280;25829;50.228;18.936;2023-04-01T18:41:15;97267.22;;;9.12;71.66
40117;BME280;25829;50.228;18.936;2023-04-01T18:44:46;97274.75;;;9.09;71.69
40117;BME280;25829;50.228;18.936;2023-04-01T18:48:27;97274.41;;;9.05;71.69
40117;BME280;25829;50.228;18.936;2023-04-01T18:51:37;97277.94;;;8.99;71.69
40117;BME280;25829;50.228;18.936;2023-04-01T18:54:47;97282.84;;;8.96;71.73
40117;BME280;25829;50.228;18.936;2023-04-01T18:57:53;97289.59;;;8.91;72.15
40117;BME280;25829;50.228;18.936;2023-04-01T19:07:48;97289.47;;;8.86;72.45
40117;BME280;25829;50.228;18.936;2023-04-01T19:11:21;97299.75;;;8.88;72.57
40117;BME280;25829;50.228;18.936;2023-04-01T19:15:11;97301.78;;;8.86;72.39
40117;BME280;25829;50.228;18.936;2023-04-01T19:21:21;97304.78;;;8.89;72.90
40117;BME280;25829;50.228;18.936;2023-04-01T19:24:45;97305.16;;;8.93;73.02
40117;BME280;25829;50.228;18.936;2023-04-01T19:28:17;97298.88;;;8.94;72.96
40117;BME280;25829;50.228;18.936;2023-04-01T19:31:29;97316.25;;;8.95;72.83
40117;BME280;25829;50.228;18.936;2023-04-01T19:34:51;97314.50;;;8.89;72.86
40117;BME280;25829;50.228;18.936;2023-04-01T19:38:04;97321.25;;;8.85;72.77
40117;BME280;25829;50.228;18.936;2023-04-01T19:47:44;97338.50;;;8.81;73.04
40117;BME280;25829;50.228;18.936;2023-04-01T19:50:55;97339.75;;;8.78;73.05
40117;BME280;25829;50.228;18.936;2023-04-01T20:00:57;97345.00;;;8.78;73.35
40117;BME280;25829;50.228;18.936;2023-04-01T20:04:03;97340.78;;;8.77;73.35
40117;BME280;25829;50.228;18.936;2023-04-01T20:10:16;97349.03;;;8.81;73.16
40117;BME280;25829;50.228;18.936;2023-04-01T20:13:29;97354.03;;;8.82;73.08
40117;BME280;25829;50.228;18.936;2023-04-01T20:16:55;97352.44;;;8.81;73.42
40117;BME280;25829;50.228;18.936;2023-04-01T20:20:03;97356.31;;;8.79;73.28
40117;BME280;25829;50.228;18.936;2023-04-01T20:23:56;97348.44;;;8.79;73.69
40117;BME280;25829;50.228;18.936;2023-04-01T20:27:14;97352.31;;;8.76;73.68
40117;BME280;25829;50.228;18.936;2023-04-01T20:34:26;97355.97;;;8.75;73.71
40117;BME280;25829;50.228;18.936;2023-04-01T20:37:52;97368.63;;;8.66;73.86
40117;BME280;25829;50.228;18.936;2023-04-01T20:41:25;97376.59;;;8.60;74.08
40117;BME280;25829;50.228;18.936;2023-04-01T20:45:27;97370.75;;;8.58;74.17
40117;BME280;25829;50.228;18.936;2023-04-01T20:51:14;97378.63;;;8.58;74.09
40117;BME280;25829;50.228;18.936;2023-04-01T21:05:05;97384.13;;;8.56;74.24
40117;BME280;25829;50.228;18.936;2023-04-01T21:10:50;97390.16;;;8.57;74.32
40117;BME280;25829;50.228;18.936;2023-04-01T21:17:34;97402.28;;;8.58;74.59
40117;BME280;25829;50.228;18.936;2023-04-01T21:20:42;97390.97;;;8.57;74.47
40117;BME280;25829;50.228;18.936;2023-04-01T21:37:58;97413.03;;;8.56;74.81
40117;BME280;25829;50.228;18.936;2023-04-01T22:07:28;97415.94;;;8.66;74.47
40117;BME280;25829;50.228;18.936;2023-04-01T22:10:41;97417.78;;;8.66;74.66
40117;BME280;25829;50.228;18.936;2023-04-01T22:13:50;97419.63;;;8.65;74.66
40117;BME280;25829;50.228;18.936;2023-04-01T22:16:59;97426.91;;;8.63;74.94
40117;BME280;25829;50.228;18.936;2023-04-01T22:27:24;97429.53;;;8.63;74.82
40117;BME280;25829;50.228;18.936;2023-04-01T22:30:48;97437.78;;;8.67;74.53
40117;BME280;25829;50.228;18.936;2023-04-01T22:34:19;97430.94;;;8.66;74.90
40117;BME280;25829;50.228;18.936;2023-04-01T22:40:52;97435.81;;;8.62;75.12
40117;BME280;25829;50.228;18.936;2023-04-01T22:43:57;97437.66;;;8.62;75.18
40117;BME280;25829;50.228;18.936;2023-04-01T22:54:13;97452.97;;;8.65;75.35
40117;BME280;25829;50.228;18.936;2023-04-01T23:00:43;97444.72;;;8.61;75.37
40117;BME280;25829;50.228;18.936;2023-04-01T23:03:49;97442.91;;;8.62;75.35
40117;BME280;25829;50.228;18.936;2023-04-01T23:07:00;97441.06;;;8.62;75.31
40117;BME280;25829;50.228;18.936;2023-04-01T23:10:05;97446.91;;;8.64;74.90
40117;BME280;25829;50.228;18.936;2023-04-01T23:13:17;97454.59;;;8.66;74.88
40117;BME280;25829;50.228;18.936;2023-04-01T23:16:28;97456.63;;;8.64;75.05
40117;BME280;25829;50.228;18.936;2023-04-01T23:19:59;97462.13;;;8.62;75.40
40117;BME280;25829;50.228;18.936;2023-04-01T23:26:52;97460.03;;;8.64;75.15
40117;BME280;25829;50.228;18.936;2023-04-01T23:29:56;97457.28;;;8.59;75.18
40117;BME280;25829;50.228;18.936;2023-04-01T23:33:19;97466.78;;;8.60;75.40
40117;BME280;25829;50.228;18.936;2023-04-01T23:36:21;97465.97;;;8.60;75.35
40117;BME280;25829;50.228;18.936;2023-04-01T23:39:42;97468.38;;;8.61;75.44
40117;BME280;25829;50.228;18.936;2023-04-01T23:42:44;97477.28;;;8.60;75.12
40117;BME280;25829;50.228;18.936;2023-04-01T23:45:45;97476.06;;;8.63;75.45
40117;BME280;25829;50.228;18.936;2023-04-01T23:48:46;97485.53;;;8.64;75.20
40117;BME280;25829;50.228;18.936;2023-04-01T23:51:58;97482.47;;;8.67;75.06
40117;BME280;25829;50.228;18.936;2023-04-01T23:58:28;97485.09;;;8.67;75.07
